sensor_id;sensor_type;location;lat;lon;timestamp;pressure;altitude;pressure_sealevel;temperature;humidity
15558;BME280;7880;50.110;9.372;2023-05-31T00:01:52;14.339756567124278;;;14.062;82.90255663903069
15558;BME280;7880;50.110;9.372;2023-05-31T00:06:56;14.259076246712358;;;14.062;86.02591277469996
15558;BME280;7880;50.110;9.372;2023-05-31T00:12:03;14.027120740548707;;;13.812;86.47022615194247
15558;BME280;7880;50.110;9.372;2023-05-31T00:17:05;14.052333265735069;;;13.75;87.10716683477833
15558;BME280;7880;50.110;9.372;2023-05-31T00:21:33;14.274203801114345;;;13.937;85.03861632858505
15558;BME280;7880;50.110;9.372;2023-05-31T00:26:37;14.062418277846882;;;13.875;86.78072065839643
15558;BME280;7880;50.110;9.372;2023-05-31T00:31:44;13.971653210750082;;;13.75;87.67894407140977
15558;BME280;7880;50.110;9.372;2023-05-31T00:36:46;14.032163245003904;;;13.812;86.93049998792318
15558;BME280;7880;50.110;9.372;2023-05-31T00:41:50;14.037205749750138;;;13.687;87.70767965785244
15558;BME280;7880;50.110;9.372;2023-05-31T00:46:55;13.865760751650669;;;13.687;87.90954295386321
15558;BME280;7880;50.110;9.372;2023-05-31T00:52:00;13.971653210750082;;;13.75;88.00639016095957
15558;BME280;7880;50.110;9.372;2023-05-31T00:57:04;13.774995888862758;;;13.562;89.91488895012586
15558;BME280;7880;50.110;9.372;2023-05-31T01:02:10;14.062418277846882;;;13.75;89.22111374939185
15558;BME280;7880;50.110;9.372;2023-05-31T01:07:13;13.537999191699782;;;13.5;90.75078998589247
15558;BME280;7880;50.110;9.372;2023-05-31T01:12:22;13.759868420899148;;;13.5;89.70202728587653
15558;BME280;7880;50.110;9.372;2023-05-31T01:17:27;13.729613492829959;;;13.5;89.8777361644712
15558;BME280;7880;50.110;9.372;2023-05-31T01:22:40;13.68927360503585;;;13.5;89.77790141073251
15558;BME280;7880;50.110;9.372;2023-05-31T01:27:35;13.613636365626007;;;13.375;90.53866357658472
15558;BME280;7880;50.110;9.372;2023-05-31T01:32:33;13.74978344371193;;;13.5;88.44494456236895
15558;BME280;7880;50.110;9.372;2023-05-31T01:37:37;13.810293324297527;;;13.562;87.79220526835871
15558;BME280;7880;50.110;9.372;2023-05-31T01:42:49;13.734655980113894;;;13.562;87.16574498574839
15558;BME280;7880;50.110;9.372;2023-05-31T01:47:45;13.628763808269287;;;13.5;87.83439638845435
15558;BME280;7880;50.110;9.372;2023-05-31T01:52:51;13.588423967041308;;;13.437;88.68969330049958
15558;BME280;7880;50.110;9.372;2023-05-31T01:58:00;13.653976218495519;;;13.5;87.59456029010329
15558;BME280;7880;50.110;9.372;2023-05-31T02:03:13;13.719528519135201;;;13.5;86.05514306154463
15558;BME280;7880;50.110;9.372;2023-05-31T02:08:45;13.734655980113894;;;13.625;86.0621266865612
15558;BME280;7880;50.110;9.372;2023-05-31T02:13:50;13.840548280306393;;;13.687;84.81125725286483
15558;BME280;7880;50.110;9.372;2023-05-31T02:18:56;13.669103668123716;;;13.562;85.28897869680718
15558;BME280;7880;50.110;9.372;2023-05-31T02:23:58;13.69431608999148;;;13.5;85.91500018458866
15558;BME280;7880;50.110;9.372;2023-05-31T02:29:09;13.543041667924262;;;13.437;86.80065333239195
15558;BME280;7880;50.110;9.372;2023-05-31T02:34:07;13.71448603272438;;;13.5;85.16194734301018
15558;BME280;7880;50.110;9.372;2023-05-31T02:39:10;13.502701866277494;;;13.437;85.97266927396603
15558;BME280;7880;50.110;9.372;2023-05-31T02:44:15;13.517829289712244;;;13.375;87.40463348287288
15558;BME280;7880;50.110;9.372;2023-05-31T02:49:19;13.613636365626007;;;13.375;86.44975293200983
15558;BME280;7880;50.110;9.372;2023-05-31T02:54:25;13.487574445462087;;;13.25;86.31933018079252
15558;BME280;7880;50.110;9.372;2023-05-31T02:59:28;13.537999191699782;;;13.312;86.01359287907319
15558;BME280;7880;50.110;9.372;2023-05-31T03:04:46;13.457319611689309;;;13.25;86.68003603715444
15558;BME280;7880;50.110;9.372;2023-05-31T03:09:38;13.346385310828918;;;13.125;86.36664733783226
15558;BME280;7880;50.110;9.372;2023-05-31T03:14:42;13.129559584055096;;;13.062;87.78140616027373
15558;BME280;7880;50.110;9.372;2023-05-31T03:19:46;13.22536623417982;;;13.0;87.00163813545927
15558;BME280;7880;50.110;9.372;2023-05-31T03:24:50;13.517829289712244;;;13.312;85.45172275525348
15558;BME280;7880;50.110;9.372;2023-05-31T03:29:55;13.45227714041248;;;13.187;85.73475343088397
15558;BME280;7880;50.110;9.372;2023-05-31T03:35:00;13.159814304322936;;;13.0;86.81481612406563
15558;BME280;7880;50.110;9.372;2023-05-31T03:40:06;13.174941668385873;;;13.0;87.40711410752427
15558;BME280;7880;50.110;9.372;2023-05-31T03:45:09;13.144686942879343;;;13.0;86.65488849188196
15558;BME280;7880;50.110;9.372;2023-05-31T03:50:21;12.998455917299726;;;12.875;86.26915051105874
15558;BME280;7880;50.110;9.372;2023-05-31T03:55:18;13.169899213407188;;;13.0;85.49738426299427
15558;BME280;7880;50.110;9.372;2023-05-31T04:00:22;13.185026579216355;;;13.062;84.34879780635406
15558;BME280;7880;50.110;9.372;2023-05-31T04:05:32;13.28587575154961;;;13.125;83.93219439272725
15558;BME280;7880;50.110;9.372;2023-05-31T04:10:33;13.174941668385873;;;13.062;83.69852938652167
15558;BME280;7880;50.110;9.372;2023-05-31T04:15:37;13.0337530389952;;;12.937;84.59079754373424
15558;BME280;7880;50.110;9.372;2023-05-31T04:20:41;13.185026579216355;;;13.0;84.1113061938158
15558;BME280;7880;50.110;9.372;2023-05-31T04:25:48;13.230408692359925;;;13.062;82.87031107444452
15558;BME280;7880;50.110;9.372;2023-05-31T04:30:49;13.26066344755236;;;13.062;82.74148753942967
15558;BME280;7880;50.110;9.372;2023-05-31T04:35:58;13.336300381371984;;;13.25;82.99240519318754
15558;BME280;7880;50.110;9.372;2023-05-31T04:41:00;13.356470241450006;;;13.25;81.55234228234353
15558;BME280;7880;50.110;9.372;2023-05-31T04:46:02;13.391767507791519;;;13.25;80.70507465525533
15558;BME280;7880;50.110;9.372;2023-05-31T04:51:10;13.674146151915192;;;13.5;80.41611317221657
15558;BME280;7880;50.110;9.372;2023-05-31T04:56:13;13.774995888862758;;;13.625;80.01346855674802
15558;BME280;7880;50.110;9.372;2023-05-31T05:01:15;14.001908222638303;;;13.812;79.73410149325036
15558;BME280;7880;50.110;9.372;2023-05-31T05:06:19;13.880888237949694;;;13.812;81.39975177295248
15558;BME280;7880;50.110;9.372;2023-05-31T05:11:28;14.006950725638308;;;13.875;79.1891970862598
15558;BME280;7880;50.110;9.372;2023-05-31T05:16:28;14.163268462993438;;;14.062;77.08997729108303
15558;BME280;7880;50.110;9.372;2023-05-31T05:21:32;14.909563451266148;;;14.625;81.63163325253531
15558;BME280;7880;50.110;9.372;2023-05-31T05:25:47;14.425479489198187;;;14.5;77.88306208420265
15558;BME280;7880;50.110;9.372;2023-05-31T05:30:53;14.571712903329171;;;14.437;75.31777332168558
15558;BME280;7880;50.110;9.372;2023-05-31T05:35:58;14.546500228258083;;;14.5;76.24968733640861
15558;BME280;7880;50.110;9.372;2023-05-31T05:41:03;14.657436052995035;;;14.5;76.99739873028814
15558;BME280;7880;50.110;9.372;2023-05-31T05:46:06;14.758286924991989;;;14.625;75.46689910642164
15558;BME280;7880;50.110;9.372;2023-05-31T05:51:12;14.778457113361219;;;14.75;75.43149663574883
15558;BME280;7880;50.110;9.372;2023-05-31T05:56:19;14.874265571706928;;;14.75;75.16367287059062
15558;BME280;7880;50.110;9.372;2023-05-31T06:01:24;15.12135102809989;;;15.0;74.39842139567675
15558;BME280;7880;50.110;9.372;2023-05-31T06:06:32;15.312968801899114;;;15.187;73.8668570423053
15558;BME280;7880;50.110;9.372;2023-05-31T06:11:32;15.52979994751513;;;15.375;73.90102922864072
15558;BME280;7880;50.110;9.372;2023-05-31T06:16:36;15.71133341351524;;;15.562;71.62054526223234
15558;BME280;7880;50.110;9.372;2023-05-31T06:21:44;15.907995093992213;;;15.75;69.5617352140495
15558;BME280;7880;50.110;9.372;2023-05-31T06:26:45;16.06431623271201;;;15.937;69.73335922100944
15558;BME280;7880;50.110;9.372;2023-05-31T06:31:51;16.331575601600342;;;16.125;69.68377841121423
15558;BME280;7880;50.110;9.372;2023-05-31T06:37:02;16.58875048311893;;;16.5;69.69744701794912
15558;BME280;7880;50.110;9.372;2023-05-31T06:42:04;16.709774218709207;;;16.562;66.69128313552515
15558;BME280;7880;50.110;9.372;2023-05-31T06:47:03;16.941736847162247;;;16.812;66.79243188957692
15558;BME280;7880;50.110;9.372;2023-05-31T06:53:55;17.10310251712799;;;17.0;63.77748471815953
15558;BME280;7880;50.110;9.372;2023-05-31T06:58:59;17.410706651030342;;;17.25;64.9163504765359
15558;BME280;7880;50.110;9.372;2023-05-31T07:04:05;17.64771385351196;;;17.437;62.44739905466344
15558;BME280;7880;50.110;9.372;2023-05-31T07:09:10;17.64771385351196;;;17.562;62.13075951797287
15558;BME280;7880;50.110;9.372;2023-05-31T07:14:22;18.005747229611735;;;17.75;61.66740287375766
15558;BME280;7880;50.110;9.372;2023-05-31T07:19:21;17.87463624557131;;;17.812;60.20983205444287
15558;BME280;7880;50.110;9.372;2023-05-31T07:24:26;18.177200351754436;;;17.937;60.5104183935009
15558;BME280;7880;50.110;9.372;2023-05-31T07:29:26;18.278055286646122;;;18.125;59.49922786714936
15558;BME280;7880;50.110;9.372;2023-05-31T07:34:31;18.39908136218437;;;18.25;57.74542673138118
15558;BME280;7880;50.110;9.372;2023-05-31T07:39:36;18.510022078693147;;;18.437;56.43105165068143
15558;BME280;7880;50.110;9.372;2023-05-31T07:44:41;18.8176311657764;;;18.625;55.4091230333901
15558;BME280;7880;50.110;9.372;2023-05-31T07:49:45;18.691561736824223;;;18.562;55.24769131429052
15558;BME280;7880;50.110;9.372;2023-05-31T07:54:50;18.822673946717988;;;18.687;53.89381072227557
15558;BME280;7880;50.110;9.372;2023-05-31T08:00:01;19.21601175685064;;;18.937;55.4953697181435
15558;BME280;7880;50.110;9.372;2023-05-31T08:05:02;19.084898956731195;;;18.875;54.772427328166586
15558;BME280;7880;50.110;9.372;2023-05-31T08:10:06;19.21601175685064;;;18.937;55.063601006872524
15558;BME280;7880;50.110;9.372;2023-05-31T08:15:10;19.347124753711977;;;19.187;54.5558270781971
15558;BME280;7880;50.110;9.372;2023-05-31T08:20:23;19.826193145755678;;;19.5;53.709101723578414
15558;BME280;7880;50.110;9.372;2023-05-31T08:25:20;20.219535473384894;;;19.937;53.90729124371176
15558;BME280;7880;50.110;9.372;2023-05-31T08:30:26;19.5084948660864;;;19.5;53.24369658696625
15558;BME280;7880;50.110;9.372;2023-05-31T08:35:28;19.679950937029208;;;19.562;51.24891569000905
15558;BME280;7880;50.110;9.372;2023-05-31T08:40:32;19.720293590851362;;;19.437;52.6077176593568
15558;BME280;7880;50.110;9.372;2023-05-31T08:45:36;19.881664392404492;;;19.812;51.011561046299185
15558;BME280;7880;50.110;9.372;2023-05-31T08:50:44;20.189278308395295;;;20.062;51.96842176188191
15558;BME280;7880;50.110;9.372;2023-05-31T08:55:53;20.461593170487323;;;20.187;50.63330163854745
15558;BME280;7880;50.110;9.372;2023-05-31T09:00:56;20.05312119559967;;;19.937;49.74414187677969
15558;BME280;7880;50.110;9.372;2023-05-31T09:05:58;20.59775091978372;;;20.437;50.65350199351417
15558;BME280;7880;50.110;9.372;2023-05-31T09:11:14;20.486807552498068;;;20.312;50.09197972801502
15558;BME280;7880;50.110;9.372;2023-05-31T09:16:12;20.769209128111832;;;20.562;50.31675693388856
15558;BME280;7880;50.110;9.372;2023-05-31T09:21:15;20.59270803639665;;;20.5;50.821413760293616
15558;BME280;7880;50.110;9.372;2023-05-31T09:26:21;21.021354163304203;;;20.812;48.456381371227415
15558;BME280;7880;50.110;9.372;2023-05-31T09:31:26;20.839809664624045;;;20.75;48.28378809543476
15558;BME280;7880;50.110;9.372;2023-05-31T09:36:36;20.920496061915763;;;20.625;50.05512206713591
15558;BME280;7880;50.110;9.372;2023-05-31T09:41:35;20.693565759435295;;;20.5;49.68006663432299
15558;BME280;7880;50.110;9.372;2023-05-31T09:46:50;20.925538964220323;;;20.937;48.26408239180708
15558;BME280;7880;50.110;9.372;2023-05-31T09:51:50;21.616419331129872;;;21.312;46.713738877716295
15558;BME280;7880;50.110;9.372;2023-05-31T09:56:53;21.752578879916108;;;21.5;47.0755488660366
15558;BME280;7880;50.110;9.372;2023-05-31T10:01:55;21.00118253371329;;;20.937;48.17896714991991
15558;BME280;7880;50.110;9.372;2023-05-31T10:07:00;21.41974480189383;;;21.125;46.3509622152828
15558;BME280;7880;50.110;9.372;2023-05-31T10:12:07;21.571032862016;;;21.25;46.6747708723997
15558;BME280;7880;50.110;9.372;2023-05-31T10:17:11;22.130800961988278;;;21.812;45.432711837259944
15558;BME280;7880;50.110;9.372;2023-05-31T10:22:17;21.67693465995253;;;21.5;45.77351298918121
15558;BME280;7880;50.110;9.372;2023-05-31T10:27:28;22.024898613989354;;;21.812;44.008930401708255
15558;BME280;7880;50.110;9.372;2023-05-31T10:32:28;22.2367034383351;;;21.875;44.13169480934644
15558;BME280;7880;50.110;9.372;2023-05-31T10:37:39;22.357734997035003;;;22.312;43.42976741342643
15558;BME280;7880;50.110;9.372;2023-05-31T10:42:53;22.38294992619776;;;22.187;44.24819749167565
15558;BME280;7880;50.110;9.372;2023-05-31T10:47:44;21.92908231448964;;;21.875;41.18968407501935
15558;BME280;7880;50.110;9.372;2023-05-31T10:52:47;22.17114474736736;;;22.062;41.50780289225386
15558;BME280;7880;50.110;9.372;2023-05-31T10:57:52;22.448508776072412;;;22.187;40.87118380937702
15558;BME280;7880;50.110;9.372;2023-05-31T11:02:57;22.967938325280556;;;22.687;43.08737864049496
15558;BME280;7880;50.110;9.372;2023-05-31T11:07:58;22.14088690658682;;;22.312;38.60430025881886
15558;BME280;7880;50.110;9.372;2023-05-31T11:13:04;23.26547703074757;;;22.875;39.70532609111105
15558;BME280;7880;50.110;9.372;2023-05-31T11:18:07;22.80656182403327;;;22.75;40.39793855943516
15558;BME280;7880;50.110;9.372;2023-05-31T11:23:26;23.462155714264373;;;23.187;39.87016315544671
15558;BME280;7880;50.110;9.372;2023-05-31T11:28:17;23.764739168673987;;;23.375;42.45561274242083
15558;BME280;7880;50.110;9.372;2023-05-31T11:33:43;23.472241812531138;;;23.375;41.528397962438255
15558;BME280;7880;50.110;9.372;2023-05-31T11:38:25;23.684050145052606;;;23.5;41.409485583904676
15558;BME280;7880;50.110;9.372;2023-05-31T11:43:29;23.72439464755007;;;23.5;38.41386015403438
15558;BME280;7880;50.110;9.372;2023-05-31T11:48:38;23.668920961418188;;;23.5;41.82537187887127
15558;BME280;7880;50.110;9.372;2023-05-31T11:53:37;22.897336069314044;;;23.0;39.19017856249816
15558;BME280;7880;50.110;9.372;2023-05-31T11:58:45;23.336079584155232;;;23.125;39.776692017111614
15558;BME280;7880;50.110;9.372;2023-05-31T12:03:48;24.09253909329418;;;23.812;43.13224717874359
15558;BME280;7880;50.110;9.372;2023-05-31T12:08:52;23.840385195985437;;;23.75;40.5123702056666
15558;BME280;7880;50.110;9.372;2023-05-31T12:14:11;23.905945139291;;;23.75;39.93741886442738
15558;BME280;7880;50.110;9.372;2023-05-31T12:19:00;23.73448077608482;;;23.562;44.53991543860255
15558;BME280;7880;50.110;9.372;2023-05-31T12:24:16;23.472241812531138;;;23.375;40.03988599095078
15558;BME280;7880;50.110;9.372;2023-05-31T12:29:18;24.09758217866183;;;23.625;42.146408782947944
15558;BME280;7880;50.110;9.372;2023-05-31T12:34:22;24.117754523042823;;;24.0;40.886354655621645
15558;BME280;7880;50.110;9.372;2023-05-31T12:39:21;23.492414012557127;;;23.562;40.34648893334348
15558;BME280;7880;50.110;9.372;2023-05-31T12:44:31;24.445555771887303;;;24.125;41.32684884207624
15558;BME280;7880;50.110;9.372;2023-05-31T12:49:29;24.19844394713291;;;24.187;38.64423823197896
15558;BME280;7880;50.110;9.372;2023-05-31T12:54:32;24.264004159066825;;;24.0;40.47049451965137
15558;BME280;7880;50.110;9.372;2023-05-31T12:59:37;23.961418975889682;;;24.0;39.384101223338114
15558;BME280;7880;50.110;9.372;2023-05-31T13:04:41;23.855514409305762;;;23.687;41.312080565479015
15558;BME280;7880;50.110;9.372;2023-05-31T13:10:02;24.16818540436798;;;23.875;40.042475021243206
15558;BME280;7880;50.110;9.372;2023-05-31T13:14:52;24.77335825036862;;;24.437;40.45627384404831
15558;BME280;7880;50.110;9.372;2023-05-31T13:19:55;24.733013263583416;;;24.625;43.53375522759189
15558;BME280;7880;50.110;9.372;2023-05-31T13:25:05;24.460685089981418;;;24.375;39.18212756088424
15558;BME280;7880;50.110;9.372;2023-05-31T13:30:16;24.359823018830504;;;24.187;39.198427576873804
15558;BME280;7880;50.110;9.372;2023-05-31T13:35:10;24.94482465200708;;;24.75;39.24325456835581
15558;BME280;7880;50.110;9.372;2023-05-31T13:40:15;24.7229270197975;;;24.625;39.00133112592212
15558;BME280;7880;50.110;9.372;2023-05-31T13:45:23;24.828832637611775;;;24.625;38.320362480369255
15558;BME280;7880;50.110;9.372;2023-05-31T13:50:24;24.23878868711763;;;24.312;36.575662745726824
15558;BME280;7880;50.110;9.372;2023-05-31T13:55:30;24.19844394713291;;;24.187;37.2123981789583
15558;BME280;7880;50.110;9.372;2023-05-31T14:00:34;23.936203591251978;;;23.875;37.585995910693676
15558;BME280;7880;50.110;9.372;2023-05-31T14:05:40;24.480857518181438;;;24.187;39.001068429372864
15558;BME280;7880;50.110;9.372;2023-05-31T14:10:45;24.51111616921262;;;24.437;39.14379011327388
15558;BME280;7880;50.110;9.372;2023-05-31T14:15:51;24.04715133808204;;;24.125;37.936790957039356
15558;BME280;7880;50.110;9.372;2023-05-31T14:20:59;24.329564420186216;;;24.125;39.51652551599657
15558;BME280;7880;50.110;9.372;2023-05-31T14:26:00;23.618490368220954;;;23.625;38.161846289804814
15558;BME280;7880;50.110;9.372;2023-05-31T14:31:04;24.27409034988377;;;24.125;37.371337556038384
15558;BME280;7880;50.110;9.372;2023-05-31T14:36:08;24.253917969414033;;;24.125;39.02274138987089
15558;BME280;7880;50.110;9.372;2023-05-31T14:41:13;24.7229270197975;;;24.375;39.594275637574434
15558;BME280;7880;50.110;9.372;2023-05-31T14:46:16;24.743099508533486;;;24.625;39.072733622795596
15558;BME280;7880;50.110;9.372;2023-05-31T14:51:21;24.596849070698955;;;24.5;38.1667439066186
15558;BME280;7880;50.110;9.372;2023-05-31T14:56:27;24.435469561279753;;;24.437;38.177842049993416
15558;BME280;7880;50.110;9.372;2023-05-31T15:01:33;24.294262735010125;;;24.25;39.702914025838176
15558;BME280;7880;50.110;9.372;2023-05-31T15:06:41;24.798573876568117;;;24.562;39.610925520689925
15558;BME280;7880;50.110;9.372;2023-05-31T15:11:44;24.712840777175735;;;24.562;40.198057310056235
15558;BME280;7880;50.110;9.372;2023-05-31T15:16:49;24.874220798822353;;;24.562;40.5939559423584
15558;BME280;7880;50.110;9.372;2023-05-31T15:21:54;24.48590062595904;;;24.375;40.12588587170136
15558;BME280;7880;50.110;9.372;2023-05-31T15:26:59;24.082452923431994;;;24.187;39.92157849263256
15558;BME280;7880;50.110;9.372;2023-05-31T15:32:04;24.057237503869693;;;24.062;39.88860750197983
15558;BME280;7880;50.110;9.372;2023-05-31T15:37:11;24.006806686572965;;;24.0;40.398087611878324
15558;BME280;7880;50.110;9.372;2023-05-31T15:42:11;24.148013048345454;;;23.937;39.872457459792415
15558;BME280;7880;50.110;9.372;2023-05-31T15:47:17;24.400167833321028;;;24.125;41.469115120423076
15558;BME280;7880;50.110;9.372;2023-05-31T15:52:22;24.127840696979547;;;24.062;41.078217359405734
15558;BME280;7880;50.110;9.372;2023-05-31T15:57:29;24.3245213214308;;;24.187;41.35348729515343
15558;BME280;7880;50.110;9.372;2023-05-31T16:02:36;24.122797609865664;;;24.0;40.31638359141882
15558;BME280;7880;50.110;9.372;2023-05-31T16:07:41;24.531288609054172;;;24.25;41.623548236512
15558;BME280;7880;50.110;9.372;2023-05-31T16:12:47;24.26904725432978;;;24.062;41.3147586236283
15558;BME280;7880;50.110;9.372;2023-05-31T16:17:56;24.016892847704003;;;24.0;40.266615134101144
15558;BME280;7880;50.110;9.372;2023-05-31T16:22:58;23.986634367803344;;;23.812;40.24457088101233
15558;BME280;7880;50.110;9.372;2023-05-31T16:28:02;24.258961064094912;;;24.0;40.163430085632015
15558;BME280;7880;50.110;9.372;2023-05-31T16:33:16;24.390081627952167;;;24.125;40.89332102668726
15558;BME280;7880;50.110;9.372;2023-05-31T16:38:25;24.601892185170435;;;24.375;41.218126121863094
15558;BME280;7880;50.110;9.372;2023-05-31T16:43:15;24.531288609054172;;;24.375;39.851713030463735
15558;BME280;7880;50.110;9.372;2023-05-31T16:48:24;24.460685089981418;;;24.375;39.48939633453398
15558;BME280;7880;50.110;9.372;2023-05-31T16:53:23;24.127840696979547;;;24.0;40.162925654186054
15558;BME280;7880;50.110;9.372;2023-05-31T16:58:28;23.865600552974502;;;23.75;40.4741459344466
15558;BME280;7880;50.110;9.372;2023-05-31T17:03:33;23.689093206846156;;;23.625;40.577350578408456
15558;BME280;7880;50.110;9.372;2023-05-31T17:08:40;23.643705661181592;;;23.562;41.387314856602636
15558;BME280;7880;50.110;9.372;2023-05-31T17:13:42;23.880729770660402;;;23.687;40.841221996900394
15558;BME280;7880;50.110;9.372;2023-05-31T17:18:46;23.75465303664678;;;23.5;39.99714169354018
15558;BME280;7880;50.110;9.372;2023-05-31T17:23:51;23.487370962114074;;;23.375;41.11265022096016
15558;BME280;7880;50.110;9.372;2023-05-31T17:28:58;23.673964022338623;;;23.437;41.49152475973319
15558;BME280;7880;50.110;9.372;2023-05-31T17:34:07;23.376423925999553;;;23.125;40.93141378576317
15558;BME280;7880;50.110;9.372;2023-05-31T17:39:06;23.416768286470322;;;23.25;44.10914290096091
15558;BME280;7880;50.110;9.372;2023-05-31T17:44:10;23.57310285922722;;;23.312;42.213117392509
15558;BME280;7880;50.110;9.372;2023-05-31T17:49:20;23.633619543124222;;;23.437;42.68421583942113
15558;BME280;7880;50.110;9.372;2023-05-31T17:54:23;23.492414012557127;;;23.375;43.91329394583381
15558;BME280;7880;50.110;9.372;2023-05-31T17:59:28;23.381466970039764;;;23.25;43.015303408838655
15558;BME280;7880;50.110;9.372;2023-05-31T18:04:31;23.21504667038098;;;23.0;43.095524910464036
15558;BME280;7880;50.110;9.372;2023-05-31T18:09:34;23.159573307592655;;;23.0;44.313385096927426
15558;BME280;7880;50.110;9.372;2023-05-31T18:14:38;23.07888484276482;;;22.875;43.52020943635359
15558;BME280;7880;50.110;9.372;2023-05-31T18:19:43;22.826733870391035;;;22.75;44.559947883056964
15558;BME280;7880;50.110;9.372;2023-05-31T18:24:50;22.398078887187875;;;22.375;45.78600984063024
15558;BME280;7880;50.110;9.372;2023-05-31T18:29:54;22.317391125508586;;;22.187;48.19279245955943
15558;BME280;7880;50.110;9.372;2023-05-31T18:34:58;22.297219196730293;;;22.062;48.693347105275436
15558;BME280;7880;50.110;9.372;2023-05-31T18:40:14;22.17114474736736;;;21.937;50.08368351761851
15558;BME280;7880;50.110;9.372;2023-05-31T18:45:06;21.92908231448964;;;21.75;49.30477679803265
15558;BME280;7880;50.110;9.372;2023-05-31T18:50:09;21.66180582381785;;;21.562;50.81991353463415
15558;BME280;7880;50.110;9.372;2023-05-31T18:55:16;21.74753592988127;;;21.5;50.93652036255431
15558;BME280;7880;50.110;9.372;2023-05-31T19:00:23;21.364272578811505;;;21.25;52.45095181963029
15558;BME280;7880;50.110;9.372;2023-05-31T19:05:33;21.1121265540889;;;20.937;52.38846714149114
15558;BME280;7880;50.110;9.372;2023-05-31T19:10:27;21.167598617100158;;;20.875;51.636030403484526
15558;BME280;7880;50.110;9.372;2023-05-31T19:15:34;21.00118253371329;;;20.812;52.99765868798681
15558;BME280;7880;50.110;9.372;2023-05-31T19:20:36;20.57757938798168;;;20.437;53.34616697093069
15558;BME280;7880;50.110;9.372;2023-05-31T19:25:40;20.738951772783185;;;20.437;53.9478264362164
15558;BME280;7880;50.110;9.372;2023-05-31T19:30:44;20.214492611825698;;;20.0;55.36249318462356
15558;BME280;7880;50.110;9.372;2023-05-31T19:35:49;20.32543563335785;;;20.062;55.3939471877762
15558;BME280;7880;50.110;9.372;2023-05-31T19:40:53;20.123721153527732;;;19.937;56.08890164830473
15558;BME280;7880;50.110;9.372;2023-05-31T19:46:15;20.264921240514376;;;19.937;55.65661133947765
15558;BME280;7880;50.110;9.372;2023-05-31T19:51:02;20.174149729829516;;;19.875;55.901718449689064
15558;BME280;7880;50.110;9.372;2023-05-31T19:56:09;20.0783354597399;;;19.812;56.43301351226898
15558;BME280;7880;50.110;9.372;2023-05-31T20:01:11;19.90687860706821;;;19.687;56.42577802618776
15558;BME280;7880;50.110;9.372;2023-05-31T20:06:21;19.831235984904925;;;19.5;57.65419881874115
15558;BME280;7880;50.110;9.372;2023-05-31T20:11:22;19.659779617103048;;;19.375;58.051354492202854
15558;BME280;7880;50.110;9.372;2023-05-31T20:16:26;19.54379461789504;;;19.312;58.94714450604036
15558;BME280;7880;50.110;9.372;2023-05-31T20:21:32;19.538751795334974;;;19.25;59.07638439227428
15558;BME280;7880;50.110;9.372;2023-05-31T20:26:37;19.347124753711977;;;19.062;61.02946769166233
15558;BME280;7880;50.110;9.372;2023-05-31T20:31:41;19.170626534544862;;;18.875;62.027422542609116
15558;BME280;7880;50.110;9.372;2023-05-31T20:36:45;19.094984549755463;;;18.812;61.20464657684191
15558;BME280;7880;50.110;9.372;2023-05-31T20:41:51;18.91344405343407;;;18.625;63.06804996798758
15558;BME280;7880;50.110;9.372;2023-05-31T20:47:05;18.631048475537682;;;18.375;63.10014458299068
15558;BME280;7880;50.110;9.372;2023-05-31T20:52:04;18.661305100942265;;;18.375;64.46221741488536
15558;BME280;7880;50.110;9.372;2023-05-31T20:57:02;18.550364192348205;;;18.312;63.2890208281986